sensor_id;sensor_type;location;lat;lon;timestamp;P1;durP1;ratioP1;P2;durP2;ratioP2
7160;SDS011;3622;53.576;9.978;2023-10-31T00:00:44;12.60;;;9.17;;
7160;SDS011;3622;53.576;9.978;2023-10-31T00:03:10;15.73;;;7.80;;
7160;SDS011;3622;53.576;9.978;2023-10-31T00:05:36;11.50;;;6.40;;
7160;SDS011;3622;53.576;9.978;2023-10-31T00:08:02;7.87;;;6.13;;
7160;SDS011;3622;53.576;9.978;2023-10-31T00:10:28;14.23;;;6.50;;
7160;SDS011;3622;53.576;9.978;2023-10-31T00:12:54;7.70;;;6.17;;
7160;SDS011;3622;53.576;9.978;2023-10-31T00:15:20;10.27;;;6.97;;
7160;SDS011;3622;53.576;9.978;2023-10-31T00:17:46;7.90;;;6.53;;
7160;SDS011;3622;53.576;9.978;2023-10-31T00:20:12;8.77;;;5.67;;
7160;SDS011;3622;53.576;9.978;2023-10-31T00:22:38;9.43;;;6.33;;
7160;SDS011;3622;53.576;9.978;2023-10-31T00:25:04;6.93;;;5.40;;
7160;SDS011;3622;53.576;9.978;2023-10-31T00:27:30;6.87;;;5.47;;
7160;SDS011;3622;53.576;9.978;2023-10-31T00:29:56;13.00;;;7.97;;
7160;SDS011;3622;53.576;9.978;2023-10-31T00:32:22;10.33;;;5.57;;
7160;SDS011;3622;53.576;9.978;2023-10-31T00:34:50;6.23;;;5.60;;
7160;SDS011;3622;53.576;9.978;2023-10-31T00:37:16;12.60;;;9.00;;
7160;SDS011;3622;53.576;9.978;2023-10-31T00:39:42;10.13;;;5.90;;
7160;SDS011;3622;53.576;9.978;2023-10-31T00:42:08;7.70;;;6.40;;
7160;SDS011;3622;53.576;9.978;2023-10-31T00:44:34;8.80;;;6.80;;
7160;SDS011;3622;53.576;9.978;2023-10-31T00:47:00;7.57;;;6.77;;
7160;SDS011;3622;53.576;9.978;2023-10-31T00:49:26;9.13;;;6.30;;
7160;SDS011;3622;53.576;9.978;2023-10-31T00:51:52;13.13;;;8.83;;
7160;SDS011;3622;53.576;9.978;2023-10-31T00:54:18;12.23;;;8.90;;
7160;SDS011;3622;53.576;9.978;2023-10-31T00:56:44;23.93;;;15.40;;
7160;SDS011;3622;53.576;9.978;2023-10-31T00:59:10;21.90;;;13.93;;
7160;SDS011;3622;53.576;9.978;2023-10-31T01:01:36;18.07;;;11.50;;
7160;SDS011;3622;53.576;9.978;2023-10-31T01:04:02;15.03;;;10.30;;
7160;SDS011;3622;53.576;9.978;2023-10-31T01:06:28;9.83;;;8.83;;
7160;SDS011;3622;53.576;9.978;2023-10-31T01:08:54;13.30;;;9.13;;
7160;SDS011;3622;53.576;9.978;2023-10-31T01:11:20;12.00;;;8.70;;
7160;SDS011;3622;53.576;9.978;2023-10-31T01:13:46;11.17;;;8.00;;
7160;SDS011;3622;53.576;9.978;2023-10-31T01:16:12;15.80;;;9.43;;
7160;SDS011;3622;53.576;9.978;2023-10-31T01:18:38;14.87;;;9.27;;
7160;SDS011;3622;53.576;9.978;2023-10-31T01:21:04;11.30;;;8.97;;
7160;SDS011;3622;53.576;9.978;2023-10-31T01:23:30;19.47;;;13.97;;
7160;SDS011;3622;53.576;9.978;2023-10-31T01:25:56;11.30;;;8.50;;
7160;SDS011;3622;53.576;9.978;2023-10-31T01:28:22;10.60;;;8.03;;
7160;SDS011;3622;53.576;9.978;2023-10-31T01:30:48;11.23;;;8.00;;
7160;SDS011;3622;53.576;9.978;2023-10-31T01:33:13;12.67;;;8.57;;
7160;SDS011;3622;53.576;9.978;2023-10-31T01:35:40;11.70;;;7.97;;
7160;SDS011;3622;53.576;9.978;2023-10-31T01:38:06;11.37;;;8.23;;
7160;SDS011;3622;53.576;9.978;2023-10-31T01:40:32;10.10;;;7.10;;
7160;SDS011;3622;53.576;9.978;2023-10-31T01:42:58;10.40;;;8.57;;
7160;SDS011;3622;53.576;9.978;2023-10-31T01:45:24;12.17;;;8.10;;
7160;SDS011;3622;53.576;9.978;2023-10-31T01:47:50;17.97;;;10.87;;
7160;SDS011;3622;53.576;9.978;2023-10-31T01:50:16;17.90;;;9.83;;
7160;SDS011;3622;53.576;9.978;2023-10-31T01:52:43;11.03;;;8.40;;
7160;SDS011;3622;53.576;9.978;2023-10-31T01:55:09;12.13;;;9.13;;
7160;SDS011;3622;53.576;9.978;2023-10-31T01:57:36;9.10;;;7.03;;
7160;SDS011;3622;53.576;9.978;2023-10-31T02:00:02;9.13;;;6.07;;
7160;SDS011;3622;53.576;9.978;2023-10-31T02:02:28;8.30;;;6.93;;
7160;SDS011;3622;53.576;9.978;2023-10-31T02:04:55;8.97;;;7.03;;
7160;SDS011;3622;53.576;9.978;2023-10-31T02:07:21;13.80;;;9.20;;
7160;SDS011;3622;53.576;9.978;2023-10-31T02:09:47;16.83;;;12.50;;
7160;SDS011;3622;53.576;9.978;2023-10-31T02:12:35;15.97;;;10.40;;
7160;SDS011;3622;53.576;9.978;2023-10-31T02:15:01;15.03;;;11.10;;
7160;SDS011;3622;53.576;9.978;2023-10-31T02:17:27;7.90;;;6.00;;
7160;SDS011;3622;53.576;9.978;2023-10-31T02:19:53;15.20;;;7.73;;
7160;SDS011;3622;53.576;9.978;2023-10-31T02:22:19;14.90;;;10.80;;
7160;SDS011;3622;53.576;9.978;2023-10-31T02:24:45;16.23;;;12.10;;
7160;SDS011;3622;53.576;9.978;2023-10-31T02:27:11;15.70;;;9.63;;
7160;SDS011;3622;53.576;9.978;2023-10-31T02:29:38;22.13;;;15.20;;
7160;SDS011;3622;53.576;9.978;2023-10-31T02:32:04;19.63;;;13.40;;
7160;SDS011;3622;53.576;9.978;2023-10-31T02:34:30;27.43;;;17.93;;
7160;SDS011;3622;53.576;9.978;2023-10-31T02:36:56;30.10;;;17.20;;
7160;SDS011;3622;53.576;9.978;2023-10-31T02:39:22;11.33;;;7.07;;
7160;SDS011;3622;53.576;9.978;2023-10-31T02:41:48;8.20;;;6.77;;
7160;SDS011;3622;53.576;9.978;2023-10-31T02:44:14;13.90;;;10.00;;
7160;SDS011;3622;53.576;9.978;2023-10-31T02:46:41;13.33;;;9.03;;
7160;SDS011;3622;53.576;9.978;2023-10-31T02:49:06;9.80;;;7.80;;
7160;SDS011;3622;53.576;9.978;2023-10-31T02:51:34;13.57;;;9.10;;
7160;SDS011;3622;53.576;9.978;2023-10-31T02:54:00;12.87;;;7.17;;
7160;SDS011;3622;53.576;9.978;2023-10-31T02:56:26;13.87;;;9.80;;
7160;SDS011;3622;53.576;9.978;2023-10-31T02:58:52;16.40;;;9.60;;
7160;SDS011;3622;53.576;9.978;2023-10-31T03:01:18;11.63;;;8.50;;
7160;SDS011;3622;53.576;9.978;2023-10-31T03:03:45;10.53;;;8.20;;
7160;SDS011;3622;53.576;9.978;2023-10-31T03:06:11;13.97;;;9.83;;
7160;SDS011;3622;53.576;9.978;2023-10-31T03:08:37;13.70;;;10.07;;
7160;SDS011;3622;53.576;9.978;2023-10-31T03:11:03;11.13;;;8.13;;
7160;SDS011;3622;53.576;9.978;2023-10-31T03:13:29;16.07;;;10.60;;
7160;SDS011;3622;53.576;9.978;2023-10-31T03:15:55;10.67;;;8.40;;
7160;SDS011;3622;53.576;9.978;2023-10-31T03:18:21;12.20;;;8.43;;
7160;SDS011;3622;53.576;9.978;2023-10-31T03:20:48;17.60;;;10.20;;
7160;SDS011;3622;53.576;9.978;2023-10-31T03:23:14;16.77;;;11.40;;
7160;SDS011;3622;53.576;9.978;2023-10-31T03:25:40;18.70;;;11.20;;
7160;SDS011;3622;53.576;9.978;2023-10-31T03:28:08;10.93;;;8.10;;
7160;SDS011;3622;53.576;9.978;2023-10-31T03:30:43;12.77;;;8.60;;
7160;SDS011;3622;53.576;9.978;2023-10-31T03:33:08;9.63;;;7.90;;
7160;SDS011;3622;53.576;9.978;2023-10-31T03:35:35;9.33;;;6.87;;
7160;SDS011;3622;53.576;9.978;2023-10-31T03:38:01;12.50;;;9.47;;
7160;SDS011;3622;53.576;9.978;2023-10-31T03:40:27;13.63;;;8.63;;
7160;SDS011;3622;53.576;9.978;2023-10-31T03:42:53;10.17;;;7.27;;
7160;SDS011;3622;53.576;9.978;2023-10-31T03:45:19;9.33;;;7.57;;
7160;SDS011;3622;53.576;9.978;2023-10-31T03:47:45;7.27;;;5.77;;
7160;SDS011;3622;53.576;9.978;2023-10-31T03:50:11;9.60;;;7.03;;
7160;SDS011;3622;53.576;9.978;2023-10-31T03:52:37;6.63;;;6.00;;
7160;SDS011;3622;53.576;9.978;2023-10-31T03:55:03;9.13;;;7.40;;
7160;SDS011;3622;53.576;9.978;2023-10-31T03:57:29;6.77;;;6.17;;
7160;SDS011;3622;53.576;9.978;2023-10-31T03:59:55;7.17;;;6.50;;
7160;SDS011;3622;53.576;9.978;2023-10-31T04:02:21;7.87;;;6.10;;
7160;SDS011;3622;53.576;9.978;2023-10-31T04:04:48;6.13;;;5.53;;
7160;SDS011;3622;53.576;9.978;2023-10-31T04:07:14;8.67;;;5.57;;
7160;SDS011;3622;53.576;9.978;2023-10-31T04:09:40;6.40;;;5.70;;
7160;SDS011;3622;53.576;9.978;2023-10-31T04:12:06;8.10;;;6.10;;
7160;SDS011;3622;53.576;9.978;2023-10-31T04:14:32;7.87;;;6.10;;
7160;SDS011;3622;53.576;9.978;2023-10-31T04:16:58;9.03;;;8.10;;
7160;SDS011;3622;53.576;9.978;2023-10-31T04:19:24;17.80;;;13.33;;
7160;SDS011;3622;53.576;9.978;2023-10-31T04:21:50;10.23;;;8.60;;
7160;SDS011;3622;53.576;9.978;2023-10-31T04:24:15;17.40;;;10.90;;
7160;SDS011;3622;53.576;9.978;2023-10-31T04:26:41;9.77;;;8.30;;
7160;SDS011;3622;53.576;9.978;2023-10-31T04:29:07;12.53;;;7.50;;
7160;SDS011;3622;53.576;9.978;2023-10-31T04:31:33;8.57;;;6.80;;
7160;SDS011;3622;53.576;9.978;2023-10-31T04:33:59;14.57;;;10.30;;
7160;SDS011;3622;53.576;9.978;2023-10-31T04:36:25;11.00;;;8.90;;
7160;SDS011;3622;53.576;9.978;2023-10-31T04:38:51;8.00;;;7.20;;
7160;SDS011;3622;53.576;9.978;2023-10-31T04:41:17;12.13;;;7.90;;
7160;SDS011;3622;53.576;9.978;2023-10-31T04:43:43;8.37;;;7.27;;
7160;SDS011;3622;53.576;9.978;2023-10-31T04:46:09;7.00;;;6.30;;
7160;SDS011;3622;53.576;9.978;2023-10-31T04:48:35;7.13;;;6.43;;
7160;SDS011;3622;53.576;9.978;2023-10-31T04:51:01;6.40;;;5.70;;
7160;SDS011;3622;53.576;9.978;2023-10-31T04:53:27;6.47;;;5.87;;
7160;SDS011;3622;53.576;9.978;2023-10-31T04:55:53;5.73;;;5.23;;
7160;SDS011;3622;53.576;9.978;2023-10-31T04:58:19;5.97;;;5.47;;
7160;SDS011;3622;53.576;9.978;2023-10-31T05:00:46;6.93;;;6.23;;
7160;SDS011;3622;53.576;9.978;2023-10-31T05:03:12;6.80;;;5.90;;
7160;SDS011;3622;53.576;9.978;2023-10-31T05:05:38;8.10;;;5.60;;
7160;SDS011;3622;53.576;9.978;2023-10-31T05:08:04;7.40;;;5.20;;
7160;SDS011;3622;53.576;9.978;2023-10-31T05:10:30;6.00;;;5.40;;
7160;SDS011;3622;53.576;9.978;2023-10-31T05:12:56;6.70;;;6.10;;
7160;SDS011;3622;53.576;9.978;2023-10-31T05:15:22;8.10;;;6.90;;
7160;SDS011;3622;53.576;9.978;2023-10-31T05:17:48;8.50;;;7.03;;
7160;SDS011;3622;53.576;9.978;2023-10-31T05:20:14;11.77;;;8.27;;
7160;SDS011;3622;53.576;9.978;2023-10-31T05:22:40;9.23;;;7.40;;
7160;SDS011;3622;53.576;9.978;2023-10-31T05:25:06;9.03;;;7.37;;
7160;SDS011;3622;53.576;9.978;2023-10-31T05:27:32;10.70;;;8.00;;
7160;SDS011;3622;53.576;9.978;2023-10-31T05:29:58;8.23;;;7.30;;
7160;SDS011;3622;53.576;9.978;2023-10-31T05:32:24;9.50;;;6.87;;
7160;SDS011;3622;53.576;9.978;2023-10-31T05:34:50;8.40;;;6.93;;
7160;SDS011;3622;53.576;9.978;2023-10-31T05:37:16;10.40;;;7.13;;
7160;SDS011;3622;53.576;9.978;2023-10-31T05:39:42;11.80;;;7.20;;
7160;SDS011;3622;53.576;9.978;2023-10-31T05:42:08;8.10;;;7.00;;
7160;SDS011;3622;53.576;9.978;2023-10-31T05:44:34;9.13;;;7.60;;
7160;SDS011;3622;53.576;9.978;2023-10-31T05:47:00;10.73;;;8.07;;
7160;SDS011;3622;53.576;9.978;2023-10-31T05:49:25;12.37;;;7.90;;
7160;SDS011;3622;53.576;9.978;2023-10-31T05:51:52;9.83;;;7.80;;
7160;SDS011;3622;53.576;9.978;2023-10-31T05:54:18;9.80;;;8.10;;
7160;SDS011;3622;53.576;9.978;2023-10-31T05:56:44;10.10;;;7.80;;
7160;SDS011;3622;53.576;9.978;2023-10-31T05:59:10;13.73;;;9.13;;
7160;SDS011;3622;53.576;9.978;2023-10-31T06:01:36;14.60;;;8.90;;
7160;SDS011;3622;53.576;9.978;2023-10-31T06:04:03;10.17;;;7.63;;
7160;SDS011;3622;53.576;9.978;2023-10-31T06:06:31;11.93;;;7.33;;
7160;SDS011;3622;53.576;9.978;2023-10-31T06:08:57;12.97;;;7.50;;
7160;SDS011;3622;53.576;9.978;2023-10-31T06:11:23;11.23;;;7.33;;
7160;SDS011;3622;53.576;9.978;2023-10-31T06:13:49;10.77;;;7.80;;
7160;SDS011;3622;53.576;9.978;2023-10-31T06:16:14;9.87;;;7.47;;
7160;SDS011;3622;53.576;9.978;2023-10-31T06:18:41;10.60;;;8.40;;
7160;SDS011;3622;53.576;9.978;2023-10-31T06:21:07;10.70;;;8.23;;
7160;SDS011;3622;53.576;9.978;2023-10-31T06:23:34;10.47;;;8.47;;
7160;SDS011;3622;53.576;9.978;2023-10-31T06:26:00;10.50;;;7.10;;
7160;SDS011;3622;53.576;9.978;2023-10-31T06:28:26;9.30;;;7.70;;
7160;SDS011;3622;53.576;9.978;2023-10-31T06:30:52;10.63;;;7.93;;
7160;SDS011;3622;53.576;9.978;2023-10-31T06:33:18;11.70;;;8.27;;
7160;SDS011;3622;53.576;9.978;2023-10-31T06:35:44;9.43;;;8.10;;
7160;SDS011;3622;53.576;9.978;2023-10-31T06:38:10;9.90;;;8.30;;
7160;SDS011;3622;53.576;9.978;2023-10-31T06:40:36;11.80;;;8.23;;
7160;SDS011;3622;53.576;9.978;2023-10-31T06:43:02;10.93;;;8.63;;
7160;SDS011;3622;53.576;9.978;2023-10-31T06:45:28;19.60;;;15.00;;
7160;SDS011;3622;53.576;9.978;2023-10-31T06:47:54;14.90;;;10.67;;
7160;SDS011;3622;53.576;9.978;2023-10-31T06:50:20;12.40;;;9.80;;
7160;SDS011;3622;53.576;9.978;2023-10-31T06:52:46;13.30;;;9.07;;
7160;SDS011;3622;53.576;9.978;2023-10-31T06:55:12;9.40;;;7.10;;
7160;SDS011;3622;53.576;9.978;2023-10-31T06:57:38;12.33;;;9.33;;
7160;SDS011;3622;53.576;9.978;2023-10-31T07:00:04;12.70;;;9.50;;
7160;SDS011;3622;53.576;9.978;2023-10-31T07:02:33;10.63;;;7.80;;
7160;SDS011;3622;53.576;9.978;2023-10-31T07:05:00;9.43;;;7.40;;
7160;SDS011;3622;53.576;9.978;2023-10-31T07:07:26;12.17;;;7.50;;
7160;SDS011;3622;53.576;9.978;2023-10-31T07:09:52;6.97;;;6.27;;
7160;SDS011;3622;53.576;9.978;2023-10-31T07:12:18;3.97;;;2.87;;
7160;SDS011;3622;53.576;9.978;2023-10-31T07:14:44;3.40;;;3.10;;
7160;SDS011;3622;53.576;9.978;2023-10-31T07:17:10;7.93;;;3.43;;
7160;SDS011;3622;53.576;9.978;2023-10-31T07:19:36;14.03;;;11.30;;
7160;SDS011;3622;53.576;9.978;2023-10-31T07:22:02;7.10;;;5.80;;
7160;SDS011;3622;53.576;9.978;2023-10-31T07:24:28;6.50;;;5.90;;
7160;SDS011;3622;53.576;9.978;2023-10-31T07:26:54;7.60;;;6.40;;
7160;SDS011;3622;53.576;9.978;2023-10-31T07:29:20;7.63;;;6.60;;
7160;SDS011;3622;53.576;9.978;2023-10-31T07:31:46;7.13;;;6.27;;
7160;SDS011;3622;53.576;9.978;2023-10-31T07:34:12;9.00;;;6.70;;
7160;SDS011;3622;53.576;9.978;2023-10-31T07:36:38;9.43;;;7.70;;
7160;SDS011;3622;53.576;9.978;2023-10-31T07:39:06;9.97;;;7.60;;
7160;SDS011;3622;53.576;9.978;2023-10-31T07:41:32;13.70;;;8.67;;
7160;SDS011;3622;53.576;9.978;2023-10-31T07:43:58;11.40;;;8.63;;
7160;SDS011;3622;53.576;9.978;2023-10-31T07:46:24;12.50;;;8.60;;
7160;SDS011;3622;53.576;9.978;2023-10-31T07:48:50;11.60;;;7.97;;
7160;SDS011;3622;53.576;9.978;2023-10-31T07:51:16;8.40;;;7.33;;
7160;SDS011;3622;53.576;9.978;2023-10-31T07:53:42;7.27;;;6.40;;
7160;SDS011;3622;53.576;9.978;2023-10-31T07:56:18;7.00;;;6.30;;
7160;SDS011;3622;53.576;9.978;2023-10-31T07:58:48;7.20;;;5.27;;
7160;SDS011;3622;53.576;9.978;2023-10-31T08:01:14;5.47;;;4.13;;
7160;SDS011;3622;53.576;9.978;2023-10-31T08:03:40;6.63;;;3.40;;
7160;SDS011;3622;53.576;9.978;2023-10-31T08:06:06;4.50;;;2.43;;
7160;SDS011;3622;53.576;9.978;2023-10-31T08:08:32;1.70;;;1.60;;
7160;SDS011;3622;53.576;9.978;2023-10-31T08:10:59;1.30;;;1.03;;
7160;SDS011;3622;53.576;9.978;2023-10-31T08:13:25;0.80;;;0.70;;
7160;SDS011;3622;53.576;9.978;2023-10-31T08:15:51;0.80;;;0.70;;
7160;SDS011;3622;53.576;9.978;2023-10-31T08:18:17;0.80;;;0.70;;
7160;SDS011;3622;53.576;9.978;2023-10-31T08:20:43;0.80;;;0.73;;
7160;SDS011;3622;53.576;9.978;2023-10-31T08:23:11;0.80;;;0.70;;
7160;SDS011;3622;53.576;9.978;2023-10-31T08:25:37;1.00;;;0.60;;
7160;SDS011;3622;53.576;9.978;2023-10-31T08:28:03;0.70;;;0.60;;
7160;SDS011;3622;53.576;9.978;2023-10-31T08:30:29;0.70;;;0.40;;
7160;SDS011;3622;53.576;9.978;2023-10-31T08:32:55;0.93;;;0.80;;
7160;SDS011;3622;53.576;9.978;2023-10-31T08:35:21;0.77;;;0.70;;
7160;SDS011;3622;53.576;9.978;2023-10-31T08:37:47;1.00;;;0.90;;
7160;SDS011;3622;53.576;9.978;2023-10-31T08:40:13;1.37;;;0.90;;
7160;SDS011;3622;53.576;9.978;2023-10-31T08:42:39;1.57;;;0.63;;
7160;SDS011;3622;53.576;9.978;2023-10-31T08:45:06;1.37;;;0.50;;
7160;SDS011;3622;53.576;9.978;2023-10-31T08:47:33;0.70;;;0.50;;
7160;SDS011;3622;53.576;9.978;2023-10-31T08:49:59;2.90;;;1.03;;
7160;SDS011;3622;53.576;9.978;2023-10-31T08:52:25;0.70;;;0.60;;
7160;SDS011;3622;53.576;9.978;2023-10-31T08:54:51;0.70;;;0.50;;
7160;SDS011;3622;53.576;9.978;2023-10-31T08:57:17;0.63;;;0.40;;
7160;SDS011;3622;53.576;9.978;2023-10-31T08:59:43;0.70;;;0.60;;
7160;SDS011;3622;53.576;9.978;2023-10-31T09:02:08;2.10;;;0.47;;
7160;SDS011;3622;53.576;9.978;2023-10-31T09:04:34;1.00;;;0.50;;
7160;SDS011;3622;53.576;9.978;2023-10-31T09:07:00;0.70;;;0.40;;
7160;SDS011;3622;53.576;9.978;2023-10-31T09:09:27;2.23;;;1.10;;
7160;SDS011;3622;53.576;9.978;2023-10-31T09:11:53;1.50;;;1.40;;
7160;SDS011;3622;53.576;9.978;2023-10-31T09:14:19;0.70;;;0.50;;
7160;SDS011;3622;53.576;9.978;2023-10-31T09:16:45;4.30;;;2.30;;
7160;SDS011;3622;53.576;9.978;2023-10-31T09:19:11;6.63;;;1.00;;
7160;SDS011;3622;53.576;9.978;2023-10-31T09:21:37;2.37;;;2.27;;
7160;SDS011;3622;53.576;9.978;2023-10-31T09:24:03;0.80;;;0.80;;
7160;SDS011;3622;53.576;9.978;2023-10-31T09:26:29;1.87;;;0.40;;
7160;SDS011;3622;53.576;9.978;2023-10-31T09:28:55;1.97;;;0.80;;
7160;SDS011;3622;53.576;9.978;2023-10-31T09:31:21;0.80;;;0.50;;
7160;SDS011;3622;53.576;9.978;2023-10-31T09:33:47;0.70;;;0.57;;
7160;SDS011;3622;53.576;9.978;2023-10-31T09:36:13;0.90;;;0.90;;
7160;SDS011;3622;53.576;9.978;2023-10-31T09:38:39;2.50;;;0.80;;
7160;SDS011;3622;53.576;9.978;2023-10-31T09:41:06;1.73;;;1.63;;
7160;SDS011;3622;53.576;9.978;2023-10-31T09:43:32;0.80;;;0.70;;
7160;SDS011;3622;53.576;9.978;2023-10-31T09:45:58;0.87;;;0.80;;
7160;SDS011;3622;53.576;9.978;2023-10-31T09:48:26;1.27;;;1.17;;
7160;SDS011;3622;53.576;9.978;2023-10-31T09:50:53;1.23;;;1.13;;
7160;SDS011;3622;53.576;9.978;2023-10-31T09:53:19;1.30;;;1.20;;
7160;SDS011;3622;53.576;9.978;2023-10-31T09:55:48;0.80;;;0.63;;
7160;SDS011;3622;53.576;9.978;2023-10-31T09:58:14;0.70;;;0.50;;
7160;SDS011;3622;53.576;9.978;2023-10-31T10:00:40;1.10;;;0.50;;
7160;SDS011;3622;53.576;9.978;2023-10-31T10:03:06;0.93;;;0.50;;
7160;SDS011;3622;53.576;9.978;2023-10-31T10:05:36;0.70;;;0.50;;
7160;SDS011;3622;53.576;9.978;2023-10-31T10:08:06;1.10;;;0.80;;
7160;SDS011;3622;53.576;9.978;2023-10-31T10:10:33;0.80;;;0.50;;
7160;SDS011;3622;53.576;9.978;2023-10-31T10:12:59;0.80;;;0.50;;
7160;SDS011;3622;53.576;9.978;2023-10-31T10:15:28;1.23;;;0.40;;
7160;SDS011;3622;53.576;9.978;2023-10-31T10:17:53;3.43;;;0.73;;
7160;SDS011;3622;53.576;9.978;2023-10-31T10:20:20;1.07;;;0.70;;
7160;SDS011;3622;53.576;9.978;2023-10-31T10:22:46;0.60;;;0.40;;
7160;SDS011;3622;53.576;9.978;2023-10-31T10:25:13;0.70;;;0.63;;
7160;SDS011;3622;53.576;9.978;2023-10-31T10:27:43;0.93;;;0.60;;
7160;SDS011;3622;53.576;9.978;2023-10-31T10:30:10;0.80;;;0.60;;
7160;SDS011;3622;53.576;9.978;2023-10-31T10:32:36;1.97;;;0.70;;
7160;SDS011;3622;53.576;9.978;2023-10-31T10:35:02;1.10;;;0.80;;
7160;SDS011;3622;53.576;9.978;2023-10-31T10:37:28;1.77;;;1.60;;
7160;SDS011;3622;53.576;9.978;2023-10-31T10:39:55;2.00;;;1.80;;
7160;SDS011;3622;53.576;9.978;2023-10-31T10:45:03;1.53;;;1.43;;
7160;SDS011;3622;53.576;9.978;2023-10-31T10:47:31;1.50;;;1.40;;
7160;SDS011;3622;53.576;9.978;2023-10-31T10:49:58;1.20;;;1.10;;
7160;SDS011;3622;53.576;9.978;2023-10-31T10:55:12;1.90;;;0.90;;
7160;SDS011;3622;53.576;9.978;2023-10-31T11:00:16;1.27;;;1.17;;
7160;SDS011;3622;53.576;9.978;2023-10-31T11:02:45;1.10;;;1.00;;
7160;SDS011;3622;53.576;9.978;2023-10-31T11:05:13;2.10;;;0.93;;
7160;SDS011;3622;53.576;9.978;2023-10-31T11:07:39;1.97;;;1.13;;
7160;SDS011;3622;53.576;9.978;2023-10-31T11:10:05;0.83;;;0.80;;
7160;SDS011;3622;53.576;9.978;2023-10-31T11:12:32;3.77;;;1.30;;
7160;SDS011;3622;53.576;9.978;2023-10-31T11:14:58;2.20;;;1.00;;
7160;SDS011;3622;53.576;9.978;2023-10-31T11:17:32;1.90;;;0.80;;
7160;SDS011;3622;53.576;9.978;2023-10-31T11:19:59;1.57;;;1.10;;
7160;SDS011;3622;53.576;9.978;2023-10-31T11:22:25;1.30;;;1.00;;
7160;SDS011;3622;53.576;9.978;2023-10-31T11:25:02;3.03;;;2.73;;
7160;SDS011;3622;53.576;9.978;2023-10-31T11:27:28;1.10;;;1.00;;
7160;SDS011;3622;53.576;9.978;2023-10-31T11:29:54;1.93;;;1.70;;
7160;SDS011;3622;53.576;9.978;2023-10-31T11:32:20;3.47;;;1.00;;
7160;SDS011;3622;53.576;9.978;2023-10-31T11:34:48;1.70;;;1.60;;
7160;SDS011;3622;53.576;9.978;2023-10-31T11:37:27;1.87;;;1.23;;
7160;SDS011;3622;53.576;9.978;2023-10-31T11:42:41;1.30;;;1.20;;
7160;SDS011;3622;53.576;9.978;2023-10-31T11:45:10;5.30;;;4.10;;
7160;SDS011;3622;53.576;9.978;2023-10-31T11:47:48;2.70;;;1.90;;
7160;SDS011;3622;53.576;9.978;2023-10-31T11:50:15;1.90;;;1.70;;
7160;SDS011;3622;53.576;9.978;2023-10-31T11:52:41;1.80;;;1.70;;
7160;SDS011;3622;53.576;9.978;2023-10-31T11:55:10;1.47;;;1.37;;
7160;SDS011;3622;53.576;9.978;2023-10-31T11:57:36;1.83;;;1.17;;
7160;SDS011;3622;53.576;9.978;2023-10-31T12:00:03;6.57;;;5.80;;
7160;SDS011;3622;53.576;9.978;2023-10-31T12:02:29;3.40;;;3.10;;
7160;SDS011;3622;53.576;9.978;2023-10-31T12:05:08;1.07;;;0.97;;
7160;SDS011;3622;53.576;9.978;2023-10-31T12:07:44;1.10;;;1.00;;
7160;SDS011;3622;53.576;9.978;2023-10-31T12:10:10;1.20;;;1.10;;
7160;SDS011;3622;53.576;9.978;2023-10-31T12:12:36;5.97;;;4.93;;
7160;SDS011;3622;53.576;9.978;2023-10-31T12:17:32;3.90;;;2.70;;
7160;SDS011;3622;53.576;9.978;2023-10-31T12:19:58;3.40;;;3.10;;
7160;SDS011;3622;53.576;9.978;2023-10-31T12:22:24;0.90;;;0.80;;
7160;SDS011;3622;53.576;9.978;2023-10-31T12:24:50;4.07;;;3.77;;
7160;SDS011;3622;53.576;9.978;2023-10-31T12:27:16;0.80;;;0.50;;
7160;SDS011;3622;53.576;9.978;2023-10-31T12:29:42;0.80;;;0.80;;
7160;SDS011;3622;53.576;9.978;2023-10-31T12:32:11;1.70;;;1.60;;
7160;SDS011;3622;53.576;9.978;2023-10-31T12:34:42;1.60;;;1.50;;
7160;SDS011;3622;53.576;9.978;2023-10-31T12:37:09;0.70;;;0.53;;
7160;SDS011;3622;53.576;9.978;2023-10-31T12:39:35;1.10;;;1.00;;
7160;SDS011;3622;53.576;9.978;2023-10-31T12:42:02;1.10;;;0.50;;
7160;SDS011;3622;53.576;9.978;2023-10-31T12:44:28;1.67;;;1.57;;
7160;SDS011;3622;53.576;9.978;2023-10-31T12:46:54;17.70;;;11.67;;
7160;SDS011;3622;53.576;9.978;2023-10-31T12:49:20;1.10;;;1.00;;
7160;SDS011;3622;53.576;9.978;2023-10-31T12:51:57;2.23;;;2.13;;
7160;SDS011;3622;53.576;9.978;2023-10-31T12:54:42;1.07;;;0.97;;
7160;SDS011;3622;53.576;9.978;2023-10-31T12:57:08;2.70;;;2.40;;
7160;SDS011;3622;53.576;9.978;2023-10-31T12:59:35;1.20;;;0.60;;
7160;SDS011;3622;53.576;9.978;2023-10-31T13:02:02;1.03;;;0.50;;
7160;SDS011;3622;53.576;9.978;2023-10-31T13:04:29;1.57;;;0.57;;
7160;SDS011;3622;53.576;9.978;2023-10-31T13:06:56;0.70;;;0.40;;
7160;SDS011;3622;53.576;9.978;2023-10-31T13:09:22;0.70;;;0.50;;
7160;SDS011;3622;53.576;9.978;2023-10-31T13:11:48;1.57;;;1.47;;
7160;SDS011;3622;53.576;9.978;2023-10-31T13:14:14;1.60;;;1.20;;
7160;SDS011;3622;53.576;9.978;2023-10-31T13:16:40;1.30;;;0.70;;
7160;SDS011;3622;53.576;9.978;2023-10-31T13:19:06;4.17;;;3.00;;
7160;SDS011;3622;53.576;9.978;2023-10-31T13:21:32;1.73;;;1.50;;
7160;SDS011;3622;53.576;9.978;2023-10-31T13:23:58;1.70;;;1.60;;
7160;SDS011;3622;53.576;9.978;2023-10-31T13:26:24;1.60;;;0.87;;
7160;SDS011;3622;53.576;9.978;2023-10-31T13:28:50;2.10;;;2.00;;
7160;SDS011;3622;53.576;9.978;2023-10-31T13:31:16;2.27;;;1.77;;
7160;SDS011;3622;53.576;9.978;2023-10-31T13:33:42;2.60;;;1.50;;
7160;SDS011;3622;53.576;9.978;2023-10-31T13:36:08;3.80;;;3.10;;
7160;SDS011;3622;53.576;9.978;2023-10-31T13:38:36;2.70;;;1.40;;
7160;SDS011;3622;53.576;9.978;2023-10-31T13:41:03;3.63;;;1.40;;
7160;SDS011;3622;53.576;9.978;2023-10-31T13:43:29;1.73;;;1.47;;
7160;SDS011;3622;53.576;9.978;2023-10-31T13:45:55;2.80;;;2.17;;
7160;SDS011;3622;53.576;9.978;2023-10-31T13:48:21;1.43;;;1.33;;
7160;SDS011;3622;53.576;9.978;2023-10-31T13:50:47;1.83;;;1.73;;
7160;SDS011;3622;53.576;9.978;2023-10-31T13:53:14;1.77;;;1.33;;
7160;SDS011;3622;53.576;9.978;2023-10-31T13:55:41;1.40;;;1.30;;
7160;SDS011;3622;53.576;9.978;2023-10-31T13:58:07;1.07;;;0.97;;
7160;SDS011;3622;53.576;9.978;2023-10-31T14:00:33;1.60;;;1.50;;
7160;SDS011;3622;53.576;9.978;2023-10-31T14:03:00;1.60;;;1.50;;
7160;SDS011;3622;53.576;9.978;2023-10-31T14:05:26;1.40;;;1.30;;
7160;SDS011;3622;53.576;9.978;2023-10-31T14:07:52;1.10;;;1.00;;
7160;SDS011;3622;53.576;9.978;2023-10-31T14:10:19;2.30;;;1.80;;
7160;SDS011;3622;53.576;9.978;2023-10-31T14:12:47;1.80;;;1.70;;
7160;SDS011;3622;53.576;9.978;2023-10-31T14:15:13;1.70;;;1.60;;
7160;SDS011;3622;53.576;9.978;2023-10-31T14:17:39;1.30;;;1.20;;
7160;SDS011;3622;53.576;9.978;2023-10-31T14:20:05;1.87;;;1.77;;
7160;SDS011;3622;53.576;9.978;2023-10-31T14:22:31;1.60;;;1.50;;
7160;SDS011;3622;53.576;9.978;2023-10-31T14:24:57;1.37;;;1.27;;
7160;SDS011;3622;53.576;9.978;2023-10-31T14:27:23;1.93;;;1.80;;
7160;SDS011;3622;53.576;9.978;2023-10-31T14:29:49;1.83;;;1.33;;
7160;SDS011;3622;53.576;9.978;2023-10-31T14:32:17;0.70;;;0.60;;
7160;SDS011;3622;53.576;9.978;2023-10-31T14:34:43;2.27;;;1.17;;
7160;SDS011;3622;53.576;9.978;2023-10-31T14:37:09;1.37;;;1.20;;
7160;SDS011;3622;53.576;9.978;2023-10-31T14:39:35;2.03;;;1.10;;
7160;SDS011;3622;53.576;9.978;2023-10-31T14:42:01;8.50;;;7.03;;
7160;SDS011;3622;53.576;9.978;2023-10-31T14:44:27;1.37;;;1.27;;
7160;SDS011;3622;53.576;9.978;2023-10-31T14:46:53;1.50;;;1.03;;
7160;SDS011;3622;53.576;9.978;2023-10-31T14:49:19;1.50;;;1.40;;
7160;SDS011;3622;53.576;9.978;2023-10-31T14:51:45;1.90;;;0.90;;
7160;SDS011;3622;53.576;9.978;2023-10-31T14:54:11;1.90;;;1.10;;
7160;SDS011;3622;53.576;9.978;2023-10-31T14:56:37;1.17;;;0.80;;
7160;SDS011;3622;53.576;9.978;2023-10-31T14:59:05;2.80;;;1.23;;
7160;SDS011;3622;53.576;9.978;2023-10-31T15:01:31;1.40;;;1.30;;
7160;SDS011;3622;53.576;9.978;2023-10-31T15:03:57;3.37;;;1.80;;
7160;SDS011;3622;53.576;9.978;2023-10-31T15:06:23;1.93;;;1.83;;
7160;SDS011;3622;53.576;9.978;2023-10-31T15:08:50;1.90;;;1.80;;
7160;SDS011;3622;53.576;9.978;2023-10-31T15:11:16;4.47;;;2.27;;
7160;SDS011;3622;53.576;9.978;2023-10-31T15:13:42;2.10;;;1.90;;
7160;SDS011;3622;53.576;9.978;2023-10-31T15:16:08;1.30;;;1.20;;
7160;SDS011;3622;53.576;9.978;2023-10-31T15:18:34;2.90;;;1.40;;